Time;durP1;ratioP1;P1;durP2;ratioP2;P2;SDS_P1;SDS_P2;PMS_P1;PMS_P2;Temp;Humidity;BMP_temperature;BMP_pressure;BME280_temperature;BME280_humidity;BME280_pressure;Samples;Min_cycle;Max_cycle;Signal;HPM_P1;HPM_P2
2024/01/06 00:01:31;;;;;;;8.93;5.10;;;;;;;7.27;51.96;99858.59;4949738;28;20438;-88
2024/01/06 00:04:00;;;;;;;7.57;4.90;;;;;;;7.28;51.83;99863.03;4972683;28;20054;-87
2024/01/06 00:06:28;;;;;;;7.95;5.18;;;;;;;7.27;52.39;99863.19;4954367;28;20129;-88
2024/01/06 00:08:58;;;;;;;8.75;5.55;;;;;;;7.31;52.15;99861.91;4967762;28;20050;-88
2024/01/06 00:11:26;;;;;;;7.93;5.38;;;;;;;7.30;52.13;99862.91;4968338;28;20051;-88
2024/01/06 00:13:54;;;;;;;9.00;5.70;;;;;;;7.27;52.28;99866.75;4946943;28;20515;-88
2024/01/06 00:16:23;;;;;;;8.02;5.45;;;;;;;7.30;52.19;99863.75;4947392;28;20043;-87
2024/01/06 00:18:59;;;;;;;7.20;5.30;;;;;;;7.31;52.56;99870.94;4959367;28;20113;-87
2024/01/06 00:21:28;;;;;;;8.35;5.72;;;;;;;7.32;52.17;99872.66;4952369;28;20098;-87
2024/01/06 00:23:56;;;;;;;8.20;5.93;;;;;;;7.32;52.26;99878.09;4955562;28;20049;-87
2024/01/06 00:26:26;;;;;;;10.18;6.03;;;;;;;7.33;52.53;99876.25;4944884;28;20043;-87
2024/01/06 00:28:54;;;;;;;9.77;5.95;;;;;;;7.33;52.10;99882.56;4948818;29;20042;-87
2024/01/06 00:31:24;;;;;;;9.65;5.90;;;;;;;7.33;51.97;99878.97;4954431;28;20049;-87
2024/01/06 00:33:52;;;;;;;8.98;6.05;;;;;;;7.31;51.92;99870.94;4967981;28;20066;-86
2024/01/06 00:36:21;;;;;;;10.48;6.22;;;;;;;7.32;51.90;99875.38;4951240;28;20582;-86
2024/01/06 00:38:49;;;;;;;8.88;5.75;;;;;;;7.34;52.10;99877.97;4951693;29;20047;-87
2024/01/06 00:41:17;;;;;;;9.90;6.20;;;;;;;7.34;52.18;99881.56;4964661;28;20067;-86
2024/01/06 00:43:47;;;;;;;10.68;5.70;;;;;;;7.31;52.06;99879.09;4970263;28;20054;-86
2024/01/06 00:46:15;;;;;;;9.90;6.38;;;;;;;7.33;52.47;99889.84;4962322;28;20526;-86
2024/01/06 00:48:43;;;;;;;9.45;6.15;;;;;;;7.31;52.50;99887.28;4952496;28;20102;-86
2024/01/06 00:51:11;;;;;;;8.52;5.90;;;;;;;7.32;52.55;99883.56;4965395;28;20047;-87
2024/01/06 00:53:39;;;;;;;9.88;6.13;;;;;;;7.30;52.67;99887.41;4951153;28;20073;-87
2024/01/06 00:56:08;;;;;;;9.52;5.97;;;;;;;7.34;52.10;99888.88;4953050;28;20050;-88
2024/01/06 00:58:37;;;;;;;9.27;5.93;;;;;;;7.31;52.48;99883.69;4949904;28;20177;-87
2024/01/06 01:01:09;;;;;;;9.40;6.28;;;;;;;7.35;52.53;99896.91;4952434;28;20059;-86
2024/01/06 01:03:37;;;;;;;9.65;5.88;;;;;;;7.31;52.73;99900.00;4955739;28;20094;-87
2024/01/06 01:06:06;;;;;;;9.15;5.90;;;;;;;7.33;52.41;99898.03;4968175;28;20043;-88
2024/01/06 01:08:34;;;;;;;9.55;5.97;;;;;;;7.34;52.58;99897.88;4970811;28;20077;-87
2024/01/06 01:11:02;;;;;;;9.52;6.30;;;;;;;7.33;52.59;99904.34;4950474;28;20065;-89
2024/01/06 01:13:30;;;;;;;8.35;5.68;;;;;;;7.34;52.39;99897.03;4960978;28;20110;-87
2024/01/06 01:15:58;;;;;;;10.35;6.10;;;;;;;7.34;52.74;99900.63;4948933;28;20042;-87
2024/01/06 01:18:28;;;;;;;11.43;6.55;;;;;;;7.36;52.57;99906.75;4944361;28;20122;-87
2024/01/06 01:20:56;;;;;;;10.30;6.40;;;;;;;7.36;52.60;99906.75;4952165;28;20053;-87
2024/01/06 01:23:25;;;;;;;9.70;6.00;;;;;;;7.33;52.63;99906.19;4944857;29;20043;-88
2024/01/06 01:25:53;;;;;;;10.95;6.30;;;;;;;7.34;52.77;99902.47;4947410;28;20450;-87
2024/01/06 01:28:21;;;;;;;9.10;6.65;;;;;;;7.36;52.82;99914.94;4957290;28;20050;-87
2024/01/06 01:30:49;;;;;;;10.45;6.65;;;;;;;7.38;53.15;99912.94;4957169;28;20042;-87
2024/01/06 01:33:18;;;;;;;9.45;6.70;;;;;;;7.37;52.88;99916.66;4957748;28;20133;-87
2024/01/06 01:35:47;;;;;;;10.73;6.40;;;;;;;7.36;53.00;99909.47;4952280;28;20522;-88
2024/01/06 01:38:15;;;;;;;8.98;6.03;;;;;;;7.37;52.99;99910.34;4953926;28;20043;-86
2024/01/06 01:40:43;;;;;;;10.43;6.82;;;;;;;7.38;52.92;99915.66;4943273;28;20341;-87
2024/01/06 01:43:17;;;;;;;9.27;6.68;;;;;;;7.41;53.30;99922.69;4953000;28;20047;-88
2024/01/06 01:45:49;;;;;;;9.50;6.57;;;;;;;7.39;53.24;99922.81;4953161;28;20050;-87
2024/01/06 01:48:17;;;;;;;9.80;6.60;;;;;;;7.40;53.22;99927.28;4967190;28;20118;-87
2024/01/06 01:50:47;;;;;;;10.55;7.35;;;;;;;7.39;53.34;99922.81;4949341;28;20031;-88
2024/01/06 01:53:16;;;;;;;11.18;6.97;;;;;;;7.39;53.24;99931.00;4967896;28;20050;-88
2024/01/06 01:55:45;;;;;;;9.80;6.63;;;;;;;7.41;53.15;99934.44;4949845;28;20149;-87
2024/01/06 01:58:15;;;;;;;11.05;6.80;;;;;;;7.42;53.21;99936.19;4953362;28;20042;-88
2024/01/06 02:00:43;;;;;;;9.82;6.55;;;;;;;7.42;53.08;99938.91;4950218;28;20463;-88
2024/01/06 02:03:14;;;;;;;9.73;6.78;;;;;;;7.39;53.00;99925.56;4970676;28;20109;-87
2024/01/06 02:05:43;;;;;;;11.00;7.00;;;;;;;7.39;53.12;99927.41;4945505;28;20066;-88
2024/01/06 02:08:12;;;;;;;11.10;7.13;;;;;;;7.41;53.04;99934.44;4969985;28;20065;-88
2024/01/06 02:10:40;;;;;;;11.73;7.45;;;;;;;7.39;53.45;99939.16;4954912;28;20047;-87
2024/01/06 02:13:10;;;;;;;10.18;6.75;;;;;;;7.41;53.34;99939.91;4969071;28;20071;-88
2024/01/06 02:15:39;;;;;;;10.05;6.95;;;;;;;7.40;52.94;99937.31;4964648;28;20067;-88
2024/01/06 02:18:07;;;;;;;11.55;7.18;;;;;;;7.40;53.34;99940.88;4964382;28;20051;-88
2024/01/06 02:20:36;;;;;;;9.32;6.47;;;;;;;7.42;53.26;99951.66;4940001;28;20039;-88
2024/01/06 02:23:06;;;;;;;10.13;6.78;;;;;;;7.40;53.14;99948.19;4963610;28;20058;-88
2024/01/06 02:25:35;;;;;;;9.35;5.93;;;;;;;7.39;53.21;99952.78;4949315;28;20051;-87
2024/01/06 02:28:03;;;;;;;11.65;7.25;;;;;;;7.41;52.93;99955.38;4956404;28;20073;-89
2024/01/06 02:30:31;;;;;;;11.38;7.35;;;;;;;7.41;53.56;99955.38;4961922;28;20051;-88
2024/01/06 02:33:00;;;;;;;11.02;7.30;;;;;;;7.40;53.48;99951.78;4943078;28;20049;-88
2024/01/06 02:35:28;;;;;;;12.05;7.63;;;;;;;7.38;53.57;99951.03;4944849;28;20458;-89
2024/01/06 02:37:59;;;;;;;13.18;7.80;;;;;;;7.40;53.41;99959.94;4950589;28;20309;-88
2024/01/06 02:40:29;;;;;;;13.00;7.85;;;;;;;7.38;53.25;99959.22;4958725;28;20114;-87
2024/01/06 02:42:57;;;;;;;10.38;7.28;;;;;;;7.38;53.58;99967.38;4950128;28;20047;-88
2024/01/06 02:45:27;;;;;;;11.48;6.95;;;;;;;7.39;53.48;99976.41;4959158;28;20046;-87
2024/01/06 02:47:59;;;;;;;10.73;7.18;;;;;;;7.36;53.48;99972.09;4954636;28;20118;-88
2024/01/06 02:50:27;;;;;;;12.25;7.22;;;;;;;7.37;53.37;99979.25;4947088;28;20039;-87
2024/01/06 02:52:55;;;;;;;12.10;7.63;;;;;;;7.38;53.65;99988.28;4968756;28;20141;-87
2024/01/06 02:55:23;;;;;;;12.13;8.18;;;;;;;7.36;53.22;99984.84;4957788;28;20196;-88
2024/01/06 02:57:52;;;;;;;11.43;7.60;;;;;;;7.37;53.71;99983.84;4950609;28;20047;-88
2024/01/06 03:00:21;;;;;;;11.88;7.57;;;;;;;7.33;53.41;99991.44;4953029;28;20047;-87
2024/01/06 03:02:49;;;;;;;11.95;7.35;;;;;;;7.32;53.39;99981.53;4947893;29;20043;-87
2024/01/06 03:05:17;;;;;;;11.88;7.78;;;;;;;7.34;53.81;99993.16;4964520;28;20049;-87
2024/01/06 03:07:45;;;;;;;11.95;7.63;;;;;;;7.31;53.94;99987.97;4969783;28;20054;-87
2024/01/06 03:10:13;;;;;;;13.40;8.45;;;;;;;7.34;53.63;99990.44;4949938;28;20051;-88
2024/01/06 03:12:41;;;;;;;13.13;8.50;;;;;;;7.33;53.89;99996.00;4950269;28;20047;-87
2024/01/06 03:15:11;;;;;;;13.57;8.35;;;;;;;7.34;53.84;100001.31;4954029;28;20050;-87
2024/01/06 03:17:39;;;;;;;12.57;8.25;;;;;;;7.32;54.06;100008.75;4957115;28;20475;-86
2024/01/06 03:20:09;;;;;;;12.98;8.40;;;;;;;7.30;54.12;100008.03;4970400;28;20043;-87
2024/01/06 03:22:38;;;;;;;13.40;8.35;;;;;;;7.32;53.97;100014.19;4972111;28;20125;-87
2024/01/06 03:25:09;;;;;;;14.02;8.48;;;;;;;7.34;53.97;100012.22;4972447;28;20057;-88
2024/01/06 03:27:37;;;;;;;12.80;8.23;;;;;;;7.31;53.91;100008.88;4954619;28;20039;-87
2024/01/06 03:30:07;;;;;;;14.13;8.50;;;;;;;7.34;53.79;100022.25;4951097;28;20539;-87
2024/01/06 03:32:37;;;;;;;14.95;8.93;;;;;;;7.33;53.82;100020.50;4944763;28;20047;-87
2024/01/06 03:35:06;;;;;;;13.93;8.68;;;;;;;7.31;54.08;100012.47;4972145;28;20126;-87
2024/01/06 03:37:34;;;;;;;14.13;8.50;;;;;;;7.33;54.19;100025.94;4957439;28;20166;-87
2024/01/06 03:40:03;;;;;;;13.30;8.27;;;;;;;7.31;53.60;100022.50;4954062;28;20050;-87
2024/01/06 03:42:32;;;;;;;13.50;8.10;;;;;;;7.30;53.70;100027.06;4954891;28;20043;-86
2024/01/06 03:45:00;;;;;;;14.68;9.02;;;;;;;7.31;53.97;100026.06;4951371;28;20046;-87
2024/01/06 03:47:28;;;;;;;14.85;8.77;;;;;;;7.32;53.91;100033.25;4954386;28;20075;-87
2024/01/06 03:49:57;;;;;;;16.77;9.20;;;;;;;7.33;53.77;100045.88;4953595;28;20045;-87
2024/01/06 03:52:25;;;;;;;14.50;8.75;;;;;;;7.31;53.87;100042.41;4944646;28;20130;-87
2024/01/06 03:54:53;;;;;;;16.95;10.27;;;;;;;7.27;53.57;100040.94;4946454;29;20102;-87
2024/01/06 03:57:21;;;;;;;17.30;10.30;;;;;;;7.31;53.54;100044.25;4954598;28;20085;-87
2024/01/06 03:59:49;;;;;;;16.67;9.57;;;;;;;7.28;53.67;100048.09;4948217;29;20062;-87
2024/01/06 04:02:17;;;;;;;15.10;9.02;;;;;;;7.29;53.75;100048.97;4934955;28;20523;-87
2024/01/06 04:04:46;;;;;;;15.82;9.60;;;;;;;7.25;53.83;100045.66;4963019;28;20500;-86
2024/01/06 04:07:16;;;;;;;15.80;8.95;;;;;;;7.29;53.64;100054.41;4953814;28;20126;-86
2024/01/06 04:09:44;;;;;;;14.73;9.55;;;;;;;7.26;53.26;100063.72;4944294;29;20051;-87
2024/01/06 04:12:12;;;;;;;14.85;9.68;;;;;;;7.26;53.15;100063.72;4970837;28;20043;-87
2024/01/06 04:14:40;;;;;;;13.32;8.30;;;;;;;7.23;52.95;100066.72;4962854;28;20067;-87
2024/01/06 04:17:08;;;;;;;13.05;8.43;;;;;;;7.19;52.94;100063.38;4954337;28;20043;-87
2024/01/06 04:19:36;;;;;;;12.60;7.47;;;;;;;7.18;52.31;100066.25;4970287;28;21547;-86
2024/01/06 04:22:05;;;;;;;11.40;6.82;;;;;;;7.13;52.26;100066.63;4945769;28;20047;-86
2024/01/06 04:24:37;;;;;;;11.50;6.60;;;;;;;7.14;52.40;100068.34;4953273;28;20051;-86
2024/01/06 04:27:05;;;;;;;11.23;6.18;;;;;;;7.08;51.93;100057.16;4954676;28;20043;-87
2024/01/06 04:29:34;;;;;;;11.05;6.65;;;;;;;7.07;52.07;100069.03;4969785;28;20529;-86
2024/01/06 04:32:02;;;;;;;9.63;5.88;;;;;;;7.02;51.64;100071.28;4965851;28;20050;-87
2024/01/06 04:34:30;;;;;;;9.80;5.55;;;;;;;7.00;51.62;100070.53;4953814;28;20055;-87
2024/01/06 04:36:58;;;;;;;9.20;5.75;;;;;;;6.95;51.65;100072.78;4964118;28;20046;-87
2024/01/06 04:39:26;;;;;;;9.52;5.85;;;;;;;6.91;51.59;100082.19;4968342;28;20134;-86
2024/01/06 04:41:58;;;;;;;9.80;5.32;;;;;;;6.88;51.60;100077.88;4950907;28;20093;-87
2024/01/06 04:44:26;;;;;;;7.68;4.97;;;;;;;6.86;51.59;100081.75;4971209;28;20035;-87
2024/01/06 04:46:54;;;;;;;8.38;5.30;;;;;;;6.85;51.94;100089.03;4956903;28;20046;-87
2024/01/06 04:49:22;;;;;;;8.40;4.80;;;;;;;6.82;51.83;100094.72;4952513;28;20135;-86
2024/01/06 04:51:50;;;;;;;9.40;5.32;;;;;;;6.80;51.83;100097.56;4949069;28;20142;-86
2024/01/06 04:54:18;;;;;;;7.47;4.32;;;;;;;6.79;51.98;100101.28;4967945;28;20109;-87
2024/01/06 04:56:47;;;;;;;8.98;4.90;;;;;;;6.78;51.96;100101.38;4946291;29;20122;-87
2024/01/06 04:59:17;;;;;;;8.63;4.85;;;;;;;6.77;51.88;100105.13;4954802;28;20059;-86
2024/01/06 05:01:45;;;;;;;8.27;4.65;;;;;;;6.76;51.65;100103.41;4952563;28;20049;-86
2024/01/06 05:04:13;;;;;;;8.52;4.68;;;;;;;6.75;51.62;100107.09;4969720;28;20058;-86
2024/01/06 05:06:41;;;;;;;8.40;5.07;;;;;;;6.73;51.52;100109.91;4968749;28;20049;-86
2024/01/06 05:09:09;;;;;;;10.52;5.40;;;;;;;6.73;51.63;100111.78;4955755;28;20404;-86
2024/01/06 05:11:37;;;;;;;8.60;4.68;;;;;;;6.70;51.89;100112.00;4960904;28;20047;-86
2024/01/06 05:14:09;;;;;;;8.88;4.82;;;;;;;6.69;52.02;100111.19;4949685;28;20049;-86
2024/01/06 05:16:38;;;;;;;10.52;5.13;;;;;;;6.70;52.22;100123.75;4950363;28;20047;-86
2024/01/06 05:19:06;;;;;;;8.75;4.60;;;;;;;6.70;51.93;100120.16;4953735;28;20530;-87
2024/01/06 05:21:35;;;;;;;8.23;4.80;;;;;;;6.69;52.30;100127.50;4968003;28;20046;-88
2024/01/06 05:24:04;;;;;;;8.15;5.05;;;;;;;6.71;52.31;100127.34;4941184;28;20047;-87
2024/01/06 05:26:32;;;;;;;10.75;5.20;;;;;;;6.71;52.44;100128.22;4955316;28;20045;-87
2024/01/06 05:29:00;;;;;;;9.40;4.82;;;;;;;6.72;52.28;100132.66;4952845;28;20058;-86
2024/01/06 05:31:28;;;;;;;10.60;5.30;;;;;;;6.72;52.23;100134.50;4952407;28;20053;-87
2024/01/06 05:33:58;;;;;;;8.65;5.13;;;;;;;6.71;51.78;100139.09;4971503;28;20047;-86
2024/01/06 05:36:26;;;;;;;10.18;5.32;;;;;;;6.71;51.97;100133.66;4954616;28;20032;-86
2024/01/06 05:38:54;;;;;;;13.65;8.13;;;;;;;6.72;52.13;100138.09;4968852;28;20039;-87
2024/01/06 05:41:22;;;;;;;14.80;10.32;;;;;;;6.72;51.91;100140.81;4953892;28;20047;-87
2024/01/06 05:43:50;;;;;;;12.52;10.90;;;;;;;6.71;51.63;100138.22;4947048;28;20259;-86
2024/01/06 05:46:22;;;;;;;15.32;13.73;;;;;;;6.73;51.09;100147.97;4950950;28;20058;-86
2024/01/06 05:48:50;;;;;;;13.18;11.45;;;;;;;6.68;51.34;100147.53;4991010;28;20070;-86
2024/01/06 05:51:20;;;;;;;13.85;11.00;;;;;;;6.70;51.41;100153.66;4962995;28;20050;-86
2024/01/06 05:53:48;;;;;;;15.63;13.13;;;;;;;6.70;51.73;100160.97;4968650;28;20077;-86
2024/01/06 05:56:24;;;;;;;13.25;9.70;;;;;;;6.70;51.60;100158.25;4955153;28;20051;-86
2024/01/06 05:58:52;;;;;;;14.43;11.00;;;;;;;6.66;51.47;100157.66;4968678;28;20047;-86
2024/01/06 06:01:21;;;;;;;12.23;8.60;;;;;;;6.68;51.60;100161.13;4950600;28;20499;-86
2024/01/06 06:03:51;;;;;;;10.40;7.60;;;;;;;6.69;51.64;100172.84;4967115;28;20118;-86
2024/01/06 06:06:21;;;;;;;11.15;6.75;;;;;;;6.67;51.26;100167.53;4947478;28;20462;-87
2024/01/06 06:08:49;;;;;;;10.50;7.00;;;;;;;6.64;51.15;100167.78;4965410;28;20043;-87
2024/01/06 06:11:17;;;;;;;8.80;5.80;;;;;;;6.65;51.29;100172.22;4960934;28;20069;-87
2024/01/06 06:13:45;;;;;;;11.23;6.97;;;;;;;6.68;51.45;100188.31;4940852;29;20058;-86
2024/01/06 06:16:13;;;;;;;11.25;6.88;;;;;;;6.66;51.32;100187.56;4963595;28;20050;-86
2024/01/06 06:18:41;;;;;;;9.82;5.88;;;;;;;6.62;51.03;100186.06;4949811;28;20122;-87
2024/01/06 06:21:09;;;;;;;12.20;7.45;;;;;;;6.62;50.96;100191.50;4948188;28;20047;-87
2024/01/06 06:23:39;;;;;;;12.02;6.90;;;;;;;6.63;50.89;100200.53;4967899;28;20043;-87
2024/01/06 06:26:08;;;;;;;8.95;5.88;;;;;;;6.61;51.13;100208.81;4950161;28;20047;-86
2024/01/06 06:28:36;;;;;;;10.60;6.15;;;;;;;6.60;50.80;100204.38;4955796;28;20249;-86
2024/01/06 06:31:04;;;;;;;10.65;6.80;;;;;;;6.59;51.15;100208.09;4940068;28;20081;-86
2024/01/06 06:33:34;;;;;;;7.85;4.78;;;;;;;6.61;50.88;100211.53;4958075;28;20406;-86
2024/01/06 06:36:02;;;;;;;9.82;5.50;;;;;;;6.61;50.93;100222.41;4953516;28;20051;-86
2024/01/06 06:38:33;;;;;;;10.52;6.05;;;;;;;6.58;51.03;100219.06;4951776;28;20487;-86
2024/01/06 06:41:04;;;;;;;10.00;5.82;;;;;;;6.60;50.88;100236.13;4964462;28;20043;-86
2024/01/06 06:43:32;;;;;;;11.80;6.28;;;;;;;6.58;51.46;100236.25;4963817;28;20062;-86
2024/01/06 06:45:59;;;;;;;10.32;5.75;;;;;;;6.58;50.93;100238.97;4966202;28;20105;-86
2024/01/06 06:48:28;;;;;;;11.80;6.43;;;;;;;6.58;50.77;100232.66;4974783;28;20039;-86
2024/01/06 06:50:56;;;;;;;9.23;5.65;;;;;;;6.57;51.19;100244.53;4942969;29;20101;-86
2024/01/06 06:53:26;;;;;;;11.15;6.43;;;;;;;6.56;50.83;100246.38;4974268;28;20035;-86
2024/01/06 06:55:55;;;;;;;11.45;6.38;;;;;;;6.59;51.04;100246.16;4957788;28;20738;-87
2024/01/06 06:58:40;;;;;;;11.02;6.00;;;;;;;6.57;50.91;100253.56;4954241;28;20047;-87
2024/01/06 07:01:14;;;;;;;10.23;5.40;;;;;;;6.54;51.18;100252.91;4940506;28;20051;-87
2024/01/06 07:03:43;;;;;;;11.73;6.00;;;;;;;6.53;50.99;100257.50;4955958;28;20049;-87
2024/01/06 07:06:12;;;;;;;9.88;6.28;;;;;;;6.55;50.93;100266.41;4969383;28;20131;-87
2024/01/06 07:08:41;;;;;;;8.60;5.40;;;;;;;6.54;51.01;100271.94;4963377;28;20514;-86
2024/01/06 07:11:11;;;;;;;8.85;5.07;;;;;;;6.51;50.90;100280.38;4956851;28;20136;-87
2024/01/06 07:13:41;;;;;;;9.80;5.50;;;;;;;6.53;50.99;100284.69;4974116;28;20047;-87
2024/01/06 07:16:09;;;;;;;10.60;5.80;;;;;;;6.50;50.98;100281.34;4955102;28;20057;-87
2024/01/06 07:18:46;;;;;;;10.00;5.60;;;;;;;6.49;51.04;100288.66;4963823;28;20097;-87
2024/01/06 07:21:14;;;;;;;11.43;6.70;;;;;;;6.51;50.84;100288.53;4967366;28;20050;-87
2024/01/06 07:23:43;;;;;;;11.80;6.57;;;;;;;6.49;50.85;100296.81;4956145;28;20097;-87
2024/01/06 07:26:11;;;;;;;9.98;5.85;;;;;;;6.48;50.94;100297.78;4947983;28;20071;-87
2024/01/06 07:28:40;;;;;;;9.52;5.93;;;;;;;6.47;51.14;100298.78;4948442;28;20062;-87
2024/01/06 07:31:09;;;;;;;10.80;6.15;;;;;;;6.47;50.95;100306.06;4956665;28;20110;-87
2024/01/06 07:33:37;;;;;;;9.80;5.78;;;;;;;6.45;50.78;100307.03;4938570;29;20408;-87
2024/01/06 07:36:06;;;;;;;11.27;6.13;;;;;;;6.46;50.71;100307.91;4941486;28;20134;-87
2024/01/06 07:38:34;;;;;;;11.75;6.15;;;;;;;6.44;50.59;100316.22;4947464;28;20035;-87
2024/01/06 07:41:04;;;;;;;11.45;6.35;;;;;;;6.45;50.54;100320.63;4955971;28;20102;-87
2024/01/06 07:43:32;;;;;;;11.38;6.00;;;;;;;6.40;51.06;100319.28;4955613;28;20039;-87
2024/01/06 07:46:03;;;;;;;12.30;6.85;;;;;;;6.42;50.54;100326.31;4957289;28;20145;-87
2024/01/06 07:48:31;;;;;;;10.52;5.78;;;;;;;6.41;50.98;100337.31;4966760;28;20478;-87
2024/01/06 07:51:00;;;;;;;11.35;6.05;;;;;;;6.40;51.17;100335.59;4949247;28;20074;-87
2024/01/06 07:53:28;;;;;;;10.95;5.97;;;;;;;6.39;51.13;100340.16;4970972;28;20047;-87
2024/01/06 07:55:56;;;;;;;9.63;5.70;;;;;;;6.38;50.81;100340.25;4953059;28;20081;-86
2024/01/06 07:58:25;;;;;;;11.52;6.05;;;;;;;6.38;51.42;100343.84;4951175;28;20404;-87
2024/01/06 08:00:53;;;;;;;9.85;5.70;;;;;;;6.37;51.44;100350.25;4947489;28;20047;-87
2024/01/06 08:03:23;;;;;;;10.45;5.93;;;;;;;6.39;51.22;100356.47;4942736;28;20039;-88
2024/01/06 08:05:51;;;;;;;12.63;6.63;;;;;;;6.36;51.38;100362.16;4951914;28;20043;-87
2024/01/06 08:08:19;;;;;;;11.48;6.05;;;;;;;6.37;51.15;100363.00;4952420;28;20047;-87
2024/01/06 08:10:48;;;;;;;12.38;5.97;;;;;;;6.37;51.24;100368.41;4950273;28;20042;-87
2024/01/06 08:13:16;;;;;;;10.38;5.63;;;;;;;6.37;51.44;100373.84;4941334;28;20061;-87
2024/01/06 08:15:44;;;;;;;11.57;5.90;;;;;;;6.37;51.42;100371.13;4957965;28;20101;-87
2024/01/06 08:18:13;;;;;;;12.30;6.75;;;;;;;6.37;51.37;100372.00;4963516;28;20114;-86
2024/01/06 08:20:42;;;;;;;12.82;6.70;;;;;;;6.38;51.37;100379.19;4950282;28;20039;-87
2024/01/06 08:23:11;;;;;;;10.82;5.85;;;;;;;6.34;51.21;100391.28;4964459;28;20054;-86
2024/01/06 08:25:39;;;;;;;11.38;6.32;;;;;;;6.35;51.26;100397.59;4955626;28;20507;-85
2024/01/06 08:28:07;;;;;;;11.38;6.18;;;;;;;6.34;51.49;100393.16;4970703;28;20050;-85
2024/01/06 08:30:35;;;;;;;11.48;6.28;;;;;;;6.33;51.48;100388.69;4957284;28;20419;-86
2024/01/06 08:33:06;;;;;;;11.80;6.45;;;;;;;6.37;51.73;100406.47;4950615;28;20043;-86
2024/01/06 08:35:39;;;;;;;10.88;6.40;;;;;;;6.33;51.54;100397.72;4941589;28;20516;-86
2024/01/06 08:38:09;;;;;;;10.65;6.40;;;;;;;6.35;51.63;100419.34;4972893;28;20077;-87
2024/01/06 08:40:37;;;;;;;12.02;6.55;;;;;;;6.33;51.02;100419.44;4944284;28;20055;-86
2024/01/06 08:43:06;;;;;;;13.50;7.63;;;;;;;6.32;51.44;100419.56;4957781;28;20134;-86
2024/01/06 08:45:34;;;;;;;12.30;7.75;;;;;;;6.34;51.42;100431.19;4940697;28;20050;-86
2024/01/06 08:48:02;;;;;;;14.15;7.70;;;;;;;6.32;51.46;100435.88;4957526;28;20057;-85
2024/01/06 08:50:30;;;;;;;12.75;7.55;;;;;;;6.31;51.56;100429.56;4957404;28;20054;-86
2024/01/06 08:52:58;;;;;;;13.20;7.60;;;;;;;6.30;51.34;100432.41;4970378;28;20050;-86
2024/01/06 08:55:28;;;;;;;13.20;7.32;;;;;;;6.33;51.25;100440.31;4956199;28;20031;-86
2024/01/06 08:57:56;;;;;;;13.55;8.27;;;;;;;6.30;51.36;100443.28;4963427;28;20543;-85
2024/01/06 09:00:24;;;;;;;11.63;7.32;;;;;;;6.31;51.36;100453.16;4951015;28;20058;-86
2024/01/06 09:02:53;;;;;;;13.77;7.95;;;;;;;6.31;51.45;100455.88;4964536;28;20085;-87
2024/01/06 09:05:21;;;;;;;13.73;7.90;;;;;;;6.31;51.42;100456.75;4956020;28;20059;-86
2024/01/06 09:07:50;;;;;;;13.13;7.95;;;;;;;6.31;51.36;100464.91;4951958;28;20051;-86
2024/01/06 09:10:22;;;;;;;11.35;7.00;;;;;;;6.29;51.80;100471.44;4954022;28;20477;-87
2024/01/06 09:12:52;;;;;;;11.32;6.70;;;;;;;6.31;51.69;100473.06;4951332;28;20047;-87
2024/01/06 09:15:20;;;;;;;12.75;7.80;;;;;;;6.31;51.62;100472.19;4963717;28;20463;-88
2024/01/06 09:17:48;;;;;;;12.68;7.60;;;;;;;6.29;51.83;100471.44;4957907;28;20043;-87
2024/01/06 09:20:17;;;;;;;13.13;7.55;;;;;;;6.30;52.08;100478.59;4949741;28;20090;-87
2024/01/06 09:22:45;;;;;;;13.00;7.45;;;;;;;6.31;51.90;100483.06;4956414;28;20245;-87
2024/01/06 09:25:14;;;;;;;11.82;6.75;;;;;;;6.31;52.09;100483.91;4946361;28;20042;-87
2024/01/06 09:27:42;;;;;;;13.30;7.25;;;;;;;6.31;51.72;100488.50;4945559;29;20046;-86
2024/01/06 09:30:12;;;;;;;12.95;7.63;;;;;;;6.33;51.89;100489.25;4965793;28;20166;-86
2024/01/06 09:32:41;;;;;;;13.43;7.88;;;;;;;6.32;51.68;100490.22;4946239;29;20086;-86
2024/01/06 09:35:09;;;;;;;15.38;8.82;;;;;;;6.32;51.68;100501.97;4956135;28;20062;-86
2024/01/06 09:37:37;;;;;;;16.02;10.15;;;;;;;6.29;52.02;100490.44;4969592;28;20055;-85
2024/01/06 09:40:07;;;;;;;16.90;9.65;;;;;;;6.31;51.57;100511.09;4959152;28;20039;-85
2024/01/06 09:42:38;;;;;;;16.98;9.90;;;;;;;6.31;51.44;100510.22;4944654;28;20063;-86
2024/01/06 09:45:07;;;;;;;18.95;9.88;;;;;;;6.31;51.23;100521.97;4970773;28;20050;-85
2024/01/06 09:47:41;;;;;;;16.83;8.48;;;;;;;6.32;51.63;100523.72;4942034;29;20043;-86
2024/01/06 09:50:10;;;;;;;16.33;9.30;;;;;;;6.28;51.35;100515.91;4950285;28;20105;-86
2024/01/06 09:52:42;;;;;;;13.93;7.60;;;;;;;6.30;51.60;100532.94;4956231;28;20042;-86
2024/01/06 09:55:12;;;;;;;15.18;8.52;;;;;;;6.28;51.49;100521.34;4942178;29;20043;-86
2024/01/06 09:57:40;;;;;;;14.73;8.15;;;;;;;6.28;51.63;100535.78;4956119;28;20045;-86
2024/01/06 10:00:09;;;;;;;15.35;8.45;;;;;;;6.25;51.44;100532.44;4955449;28;20046;-86
2024/01/06 10:02:43;;;;;;;14.90;8.07;;;;;;;6.28;51.65;100537.66;4949424;29;20074;-85
2024/01/06 10:05:13;;;;;;;15.30;9.05;;;;;;;6.25;51.38;100541.47;4952282;28;20043;-86
2024/01/06 10:07:43;;;;;;;14.15;8.15;;;;;;;6.23;51.55;100539.84;4962985;28;20082;-85
2024/01/06 10:10:11;;;;;;;16.25;8.98;;;;;;;6.22;51.87;100541.69;4959568;28;20053;-87
2024/01/06 10:12:40;;;;;;;15.80;8.98;;;;;;;6.26;51.75;100550.50;4976901;28;20051;-86
2024/01/06 10:15:09;;;;;;;18.33;10.05;;;;;;;6.25;51.24;100551.47;4951447;28;20514;-85
2024/01/06 10:17:38;;;;;;;18.10;10.02;;;;;;;6.22;51.59;100557.97;4971800;28;20235;-85
2024/01/06 10:20:11;;;;;;;15.52;9.05;;;;;;;6.20;51.35;100550.94;4972417;28;20051;-86
2024/01/06 10:22:41;;;;;;;16.27;9.18;;;;;;;6.20;51.42;100556.38;4947762;28;20472;-85
2024/01/06 10:25:11;;;;;;;18.63;9.63;;;;;;;6.18;51.09;100559.22;4942586;29;20057;-85
2024/01/06 10:27:40;;;;;;;17.17;9.30;;;;;;;6.17;51.48;100557.47;4945144;28;20599;-85
2024/01/06 10:30:09;;;;;;;19.25;9.80;;;;;;;6.15;51.32;100556.72;4958304;28;20050;-86
2024/01/06 10:32:38;;;;;;;15.70;9.10;;;;;;;6.14;51.49;100546.81;4965563;28;20050;-85
2024/01/06 10:35:07;;;;;;;16.08;8.55;;;;;;;6.13;51.05;100557.78;4955887;28;20043;-85
2024/01/06 10:37:37;;;;;;;14.18;7.70;;;;;;;6.13;51.60;100550.50;4951628;28;20498;-85
2024/01/06 10:40:10;;;;;;;14.20;7.95;;;;;;;6.12;51.20;100551.50;4958017;28;20454;-86
2024/01/06 10:42:39;;;;;;;14.02;7.25;;;;;;;6.11;51.34;100565.22;4944538;28;20043;-86
2024/01/06 10:45:10;;;;;;;13.98;7.82;;;;;;;6.11;51.54;100562.50;4968054;28;20183;-85
2024/01/06 10:47:39;;;;;;;16.20;7.90;;;;;;;6.10;51.49;100567.06;4949803;29;20551;-84
2024/01/06 10:50:08;;;;;;;16.95;8.88;;;;;;;6.11;51.41;100570.66;4965008;28;20043;-84
2024/01/06 10:52:38;;;;;;;27.00;20.15;;;;;;;6.09;51.35;100565.31;4962529;28;20051;-85
2024/01/06 10:55:07;;;;;;;29.63;19.23;;;;;;;6.05;51.34;100561.06;4957665;28;20039;-86
2024/01/06 10:57:37;;;;;;;21.13;13.35;;;;;;;6.04;51.39;100564.78;4961616;28;20043;-85
2024/01/06 11:00:07;;;;;;;18.35;11.52;;;;;;;6.05;51.79;100575.53;4955801;28;20124;-85
2024/01/06 11:02:37;;;;;;;19.23;10.98;;;;;;;6.03;51.93;100566.66;4958814;28;20118;-85
2024/01/06 11:05:13;;;;;;;15.85;9.10;;;;;;;6.03;51.78;100577.50;4939490;29;20570;-85
2024/01/06 11:07:43;;;;;;;16.85;9.35;;;;;;;6.00;51.43;100569.56;4945279;28;20431;-84
2024/01/06 11:10:16;;;;;;;17.60;9.23;;;;;;;6.02;51.58;100578.50;4953003;28;20450;-85
2024/01/06 11:12:45;;;;;;;17.77;9.75;;;;;;;6.00;51.26;100566.88;4944275;29;20125;-84
2024/01/06 11:15:41;;;;;;;19.23;10.38;;;;;;;6.02;51.18;100583.94;4948762;28;20566;-85
2024/01/06 11:18:09;;;;;;;17.70;9.98;;;;;;;5.95;51.08;100582.59;4955362;28;20514;-85
2024/01/06 11:20:38;;;;;;;17.15;9.20;;;;;;;5.93;51.33;100571.00;4954163;28;20042;-84
2024/01/06 11:23:22;;;;;;;17.88;9.43;;;;;;;5.96;51.11;100572.63;4951043;28;20587;-85
2024/01/06 11:25:50;;;;;;;20.02;10.38;;;;;;;5.90;51.33;100570.34;4955742;28;20130;-85
2024/01/06 11:28:18;;;;;;;19.40;10.27;;;;;;;5.92;51.18;100576.53;4968261;28;20043;-84
2024/01/06 11:30:47;;;;;;;20.00;10.75;;;;;;;5.89;50.85;100566.75;4970174;28;20047;-85
2024/01/06 11:33:15;;;;;;;18.38;10.43;;;;;;;5.88;50.72;100578.59;4957211;28;20047;-85
2024/01/06 11:35:49;;;;;;;19.58;10.77;;;;;;;5.87;50.75;100576.88;4972145;28;20212;-84
2024/01/06 11:38:18;;;;;;;17.45;10.15;;;;;;;5.85;50.83;100578.84;4966528;28;20050;-85